Rushford, Minnesota
Current Conditions -  °F | °C
As of 12:15 PM on Thursday 29 Jan 2015 (Local Time) from KONA Reporting Station
Overcast Overcast  
Wind Chill: 23°   Ceiling: 2600
Heat Index: 34°   Visibility: 10mi
Dew Point: 27°   Wind: 18mph
Humidity: 75%   Direction: 320°NW
Pressure: 30.15"   Gusts: 33mph
Location:  43.81°N, 91.75°W
Report Text: KONA 291815Z AUTO 32016G29KT 10SM OVC026 01/M03 A3015 RMK AO2
Loading
Personal Weather Stations






























Interactive Weather Map New forecast layout! Learn more

10-Day Weather Forecast

Advertisements
Track Severe Weather on mobile